createdAt,value
2019-03-03T00:00:58.480Z,-908.85
2019-03-03T00:01:58.787Z,-904.21
2019-03-03T00:02:59.150Z,-905.94
2019-03-03T00:03:59.333Z,-907.29
2019-03-03T00:04:59.617Z,-909.91
2019-03-03T00:05:59.873Z,-906.95
2019-03-03T00:07:00.168Z,-909.77
2019-03-03T00:08:00.435Z,-907.99
2019-03-03T00:09:00.671Z,-911.59
2019-03-03T00:10:00.972Z,-909.71
2019-03-03T00:11:01.343Z,-913.73
2019-03-03T00:12:01.499Z,-905.39
2019-03-03T00:13:01.792Z,-910.11
2019-03-03T00:14:02.018Z,-906.62
2019-03-03T00:15:02.321Z,-909.57
2019-03-03T00:16:02.571Z,-909.63
2019-03-03T00:17:02.836Z,-903.59
2019-03-03T00:18:03.129Z,-905.65
2019-03-03T00:19:03.427Z,-909.57
2019-03-03T00:20:03.645Z,-905.93
2019-03-03T00:21:08.666Z,-912.88
2019-03-03T00:22:04.211Z,-910.83
2019-03-03T00:23:04.467Z,-903.64
2019-03-03T00:24:04.686Z,-905.92
2019-03-03T00:25:04.997Z,-911.67
2019-03-03T00:26:05.244Z,-913.51
2019-03-03T00:27:05.623Z,-904.78
2019-03-03T00:28:05.826Z,-907.30
2019-03-03T00:29:06.019Z,-911.03
2019-03-03T00:30:06.318Z,-910.48
2019-03-03T00:31:06.570Z,-911.19
2019-03-03T00:32:06.875Z,-905.67
2019-03-03T00:33:07.168Z,-960.91
2019-03-03T00:34:07.415Z,-962.14
2019-03-03T00:35:07.706Z,-961.76
2019-03-03T00:36:07.947Z,-955.94
2019-03-03T00:37:08.199Z,-960.28
2019-03-03T00:38:08.458Z,-959.32
2019-03-03T00:39:08.759Z,-962.78
2019-03-03T00:40:08.967Z,-957.15
2019-03-03T00:41:09.263Z,-958.31
2019-03-03T00:42:09.545Z,-961.05
2019-03-03T00:43:09.810Z,-959.58
2019-03-03T00:44:10.201Z,-962.34
2019-03-03T00:45:10.364Z,-959.09
2019-03-03T00:46:10.618Z,-957.22
2019-03-03T00:47:10.904Z,-961.37
2019-03-03T00:48:11.144Z,-958.70
2019-03-03T00:49:11.473Z,-963.20
2019-03-03T00:50:11.789Z,-960.22
2019-03-03T00:51:11.940Z,-960.10
2019-03-03T00:52:14.167Z,-939.50
2019-03-03T00:53:12.490Z,-954.10
2019-03-03T00:54:12.961Z,-958.98
2019-03-03T00:55:13.291Z,-953.11
2019-03-03T00:56:13.285Z,-958.90
2019-03-03T00:57:13.584Z,-958.00
2019-03-03T00:58:13.838Z,-955.70
2019-03-03T00:59:14.142Z,-962.88
2019-03-03T01:00:14.419Z,-959.93
2019-03-03T01:01:14.617Z,-963.78
2019-03-03T01:02:14.907Z,-962.05
2019-03-03T01:03:15.173Z,-960.49
2019-03-03T01:04:15.508Z,-958.85
2019-03-03T01:05:15.715Z,-961.26
2019-03-03T01:06:15.972Z,-959.91
2019-03-03T01:07:16.242Z,-954.24
2019-03-03T01:08:16.522Z,-963.02
2019-03-03T01:09:16.788Z,-958.09
2019-03-03T01:10:17.043Z,-956.18
2019-03-03T01:11:17.303Z,-958.47
2019-03-03T01:12:17.595Z,-958.94
2019-03-03T01:13:17.833Z,-955.20
2019-03-03T01:14:18.166Z,-958.11
2019-03-03T01:15:18.391Z,-957.34
2019-03-03T01:16:18.670Z,-959.43
2019-03-03T01:17:19.016Z,-954.64
2019-03-03T01:18:19.171Z,-956.41
2019-03-03T01:19:19.476Z,-963.08
2019-03-03T01:20:19.730Z,-959.17
2019-03-03T01:21:20.000Z,-953.09
2019-03-03T01:22:20.265Z,-945.44
2019-03-03T01:23:20.588Z,-951.51
2019-03-03T01:24:20.819Z,-950.05
2019-03-03T01:25:21.234Z,-949.95
2019-03-03T01:26:21.355Z,-948.98
2019-03-03T01:27:21.641Z,-947.51
2019-03-03T01:28:21.897Z,-943.98
2019-03-03T01:29:22.144Z,-945.20
2019-03-03T01:30:22.436Z,-942.91
2019-03-03T01:31:22.691Z,-942.64
2019-03-03T01:32:22.963Z,-943.30
2019-03-03T01:33:23.296Z,-948.23
2019-03-03T01:34:23.496Z,-946.58
2019-03-03T01:35:23.751Z,-896.41
2019-03-03T01:36:24.022Z,-896.16
2019-03-03T01:37:24.313Z,-886.79
2019-03-03T01:38:24.578Z,-889.58
2019-03-03T01:39:24.806Z,-894.64
2019-03-03T01:40:25.170Z,-897.21
2019-03-03T01:41:25.399Z,-894.06
2019-03-03T01:42:25.617Z,-890.48
2019-03-03T01:43:25.899Z,-898.62
2019-03-03T01:44:26.162Z,-896.32
2019-03-03T01:45:26.428Z,-894.99
2019-03-03T01:46:26.671Z,-899.46
2019-03-03T01:47:26.947Z,-888.53
2019-03-03T01:48:27.298Z,-897.50
2019-03-03T01:49:27.550Z,-890.31
2019-03-03T01:50:27.848Z,-897.85
2019-03-03T01:51:28.009Z,-895.51
2019-03-03T01:52:28.303Z,-891.67
2019-03-03T01:53:28.654Z,-889.61
2019-03-03T01:54:28.842Z,-888.19
2019-03-03T01:55:29.134Z,-889.46
2019-03-03T01:56:29.385Z,-884.55
2019-03-03T01:57:29.653Z,-891.74
2019-03-03T01:58:30.091Z,-892.26
2019-03-03T01:59:30.168Z,-890.43
2019-03-03T02:00:30.468Z,-893.69
2019-03-03T02:01:30.719Z,-891.63
2019-03-03T02:02:30.975Z,-888.22
2019-03-03T02:03:31.274Z,-893.63
2019-03-03T02:04:31.520Z,-896.05
2019-03-03T02:05:31.814Z,-893.48
2019-03-03T02:06:32.211Z,-889.91
2019-03-03T02:07:32.311Z,-893.09
2019-03-03T02:08:32.610Z,-892.10
2019-03-03T02:09:32.864Z,-896.21
2019-03-03T02:10:33.140Z,-893.86
2019-03-03T02:11:33.431Z,-899.10
2019-03-03T02:12:33.677Z,-893.83
2019-03-03T02:13:33.970Z,-890.28
2019-03-03T02:14:34.276Z,-895.53
2019-03-03T02:15:34.477Z,-896.60
2019-03-03T02:16:34.734Z,-897.42
2019-03-03T02:17:35.005Z,-898.96
2019-03-03T02:18:35.339Z,-900.23
2019-03-03T02:19:35.520Z,-897.41
2019-03-03T02:20:35.786Z,-901.56
2019-03-03T02:21:36.062Z,-899.49
2019-03-03T02:22:36.375Z,-900.52
2019-03-03T02:23:36.602Z,-892.94
2019-03-03T02:24:36.849Z,-897.51
2019-03-03T02:25:37.103Z,-892.30
2019-03-03T02:26:37.424Z,-890.30
2019-03-03T02:27:37.683Z,-893.75
2019-03-03T02:28:37.971Z,-893.32
2019-03-03T02:29:38.222Z,-894.81
2019-03-03T02:30:38.518Z,-894.78
2019-03-03T02:31:38.878Z,-893.48
2019-03-03T02:32:39.043Z,-894.25
2019-03-03T02:33:39.600Z,-886.59
2019-03-03T02:34:39.577Z,-893.08
2019-03-03T02:35:39.850Z,-892.65
2019-03-03T02:36:40.132Z,-892.41
2019-03-03T02:37:40.370Z,-892.76
2019-03-03T02:38:40.674Z,-897.30
2019-03-03T02:39:41.038Z,-892.17
2019-03-03T02:40:41.207Z,-892.73
2019-03-03T02:41:41.463Z,-892.04
2019-03-03T02:42:41.721Z,-891.63
2019-03-03T02:43:42.031Z,-889.96
2019-03-03T02:44:42.258Z,-890.27
2019-03-03T02:45:42.529Z,-895.65
2019-03-03T02:46:42.830Z,-891.79
2019-03-03T02:47:43.149Z,-891.12
2019-03-03T02:48:43.345Z,-895.17
2019-03-03T02:49:43.596Z,-895.44
2019-03-03T02:50:43.865Z,-890.26
2019-03-03T02:51:44.169Z,-889.28
2019-03-03T02:52:44.388Z,-890.38
2019-03-03T02:53:44.702Z,-893.81
2019-03-03T02:54:44.960Z,-891.67
2019-03-03T02:55:45.252Z,-893.09
2019-03-03T02:56:45.517Z,-898.67
2019-03-03T02:57:45.745Z,-890.69
2019-03-03T02:58:46.016Z,-897.68
2019-03-03T02:59:46.356Z,-896.70
2019-03-03T03:00:46.568Z,-893.87
2019-03-03T03:01:46.847Z,-894.75
2019-03-03T03:02:47.130Z,-898.76
2019-03-03T03:03:47.412Z,-899.89
2019-03-03T03:04:47.705Z,-898.92
2019-03-03T03:05:48.006Z,-901.35
2019-03-03T03:06:48.278Z,-898.59
2019-03-03T03:07:48.515Z,-898.56
2019-03-03T03:08:48.806Z,-899.38
2019-03-03T03:09:49.051Z,-894.62
2019-03-03T03:10:49.311Z,-901.61
2019-03-03T03:11:49.681Z,-901.17
2019-03-03T03:12:49.976Z,-900.22
2019-03-03T03:13:50.163Z,-903.08
2019-03-03T03:14:50.491Z,-900.19
2019-03-03T03:15:50.666Z,-902.93
2019-03-03T03:16:50.979Z,-902.10
2019-03-03T03:17:51.221Z,-902.46
2019-03-03T03:18:51.506Z,-900.93
2019-03-03T03:19:51.759Z,-904.99
2019-03-03T03:20:52.146Z,-902.35
2019-03-03T03:21:52.357Z,-908.14
2019-03-03T03:22:52.555Z,-907.69
2019-03-03T03:23:52.846Z,-906.78
2019-03-03T03:24:53.103Z,-907.54
2019-03-03T03:25:53.370Z,-898.13
2019-03-03T03:26:53.650Z,-902.54
2019-03-03T03:27:53.907Z,-905.56
2019-03-03T03:28:54.240Z,-904.98
2019-03-03T03:29:54.456Z,-900.90
2019-03-03T03:30:54.748Z,-906.44
2019-03-03T03:31:55.038Z,-905.84
2019-03-03T03:32:55.273Z,-904.70
2019-03-03T03:33:55.554Z,-912.13
2019-03-03T03:34:55.849Z,-907.79
2019-03-03T03:35:56.109Z,-902.09
2019-03-03T03:36:56.489Z,-907.90
2019-03-03T03:37:56.611Z,-908.78
2019-03-03T03:38:56.908Z,-904.99
2019-03-03T03:39:57.202Z,-908.99
2019-03-03T03:40:57.450Z,-906.96
2019-03-03T03:41:57.740Z,-908.66
2019-03-03T03:42:58.000Z,-909.06
2019-03-03T03:43:58.239Z,-907.20
2019-03-03T03:44:58.564Z,-913.04
2019-03-03T03:45:58.839Z,-904.75
2019-03-03T03:46:59.086Z,-914.62
2019-03-03T03:47:59.363Z,-902.88
2019-03-03T03:48:59.589Z,-905.93
2019-03-03T03:49:59.891Z,-907.24
2019-03-03T03:51:00.146Z,-908.71
2019-03-03T03:52:00.436Z,-908.27
2019-03-03T03:53:00.701Z,-909.32
2019-03-03T03:54:01.054Z,-903.53
2019-03-03T03:55:01.231Z,-909.10
2019-03-03T03:56:01.495Z,-909.49
2019-03-03T03:57:01.785Z,-912.41
2019-03-03T03:58:02.048Z,-906.94
2019-03-03T03:59:02.301Z,-909.38
2019-03-03T04:00:02.588Z,-906.86
2019-03-03T04:01:02.826Z,-912.61
2019-03-03T04:02:03.260Z,-914.11
2019-03-03T04:03:03.399Z,-908.33
2019-03-03T04:04:03.639Z,-908.25
2019-03-03T04:05:03.919Z,-908.77
2019-03-03T04:06:04.190Z,-911.51
2019-03-03T04:07:04.477Z,-914.68
2019-03-03T04:08:04.728Z,-908.49
2019-03-03T04:09:04.981Z,-910.21
2019-03-03T04:10:05.315Z,-906.43
2019-03-03T04:11:05.492Z,-913.01
2019-03-03T04:12:06.024Z,-903.89
2019-03-03T04:13:06.070Z,-905.17
2019-03-03T04:14:06.336Z,-901.97
2019-03-03T04:15:06.615Z,-903.56
2019-03-03T04:16:06.869Z,-902.82
2019-03-03T04:17:07.154Z,-901.37
2019-03-03T04:18:07.451Z,-898.09
2019-03-03T04:19:07.649Z,-900.90
2019-03-03T04:20:07.943Z,-903.07
2019-03-03T04:21:08.263Z,-899.09
2019-03-03T04:22:08.489Z,-906.24
2019-03-03T04:23:08.748Z,-901.38
2019-03-03T04:24:09.010Z,-899.44
2019-03-03T04:25:09.300Z,-908.94
2019-03-03T04:26:10.081Z,-903.74
2019-03-03T04:27:09.926Z,-903.72
2019-03-03T04:28:10.102Z,-895.93
2019-03-03T04:29:10.366Z,-901.29
2019-03-03T04:30:10.665Z,-900.09
2019-03-03T04:31:10.913Z,-904.57
2019-03-03T04:32:11.183Z,-898.13
2019-03-03T04:33:11.469Z,-899.34
2019-03-03T04:34:11.713Z,-898.50
2019-03-03T04:35:12.476Z,-902.75
2019-03-03T04:36:12.263Z,-900.27
2019-03-03T04:37:12.524Z,-901.59
2019-03-03T04:38:12.810Z,-899.25
2019-03-03T04:39:13.065Z,-896.14
2019-03-03T04:40:13.400Z,-899.50
2019-03-03T04:41:13.646Z,-901.11
2019-03-03T04:42:13.899Z,-902.14
2019-03-03T04:43:14.305Z,-892.36
2019-03-03T04:44:14.424Z,-897.78
2019-03-03T04:45:14.703Z,-890.85
2019-03-03T04:46:14.965Z,-897.24
2019-03-03T04:47:15.240Z,-902.14
2019-03-03T04:48:15.524Z,-899.22
2019-03-03T04:49:15.783Z,-893.13
2019-03-03T04:50:16.060Z,-902.26
2019-03-03T04:51:16.347Z,-904.17
2019-03-03T04:52:16.559Z,-896.71
2019-03-03T04:53:16.852Z,-898.61
2019-03-03T04:54:17.111Z,-894.28
2019-03-03T04:55:17.393Z,-906.45
2019-03-03T04:56:17.636Z,-906.04
2019-03-03T04:57:17.891Z,-897.37
2019-03-03T04:58:18.190Z,-906.87
2019-03-03T04:59:18.481Z,-902.55
2019-03-03T05:00:18.730Z,-903.67
2019-03-03T05:01:18.975Z,-906.47
2019-03-03T05:02:19.233Z,-905.61
2019-03-03T05:03:19.524Z,-908.60
2019-03-03T05:04:19.805Z,-903.85
2019-03-03T05:05:20.073Z,-906.83
2019-03-03T05:06:20.321Z,-905.12
2019-03-03T05:07:20.636Z,-906.18
2019-03-03T05:08:20.994Z,-900.09
2019-03-03T05:09:21.122Z,-908.45
2019-03-03T05:10:21.408Z,-907.43
2019-03-03T05:11:21.658Z,-909.62
2019-03-03T05:12:21.925Z,-907.73
2019-03-03T05:13:22.208Z,-908.98
2019-03-03T05:14:22.468Z,-899.90
2019-03-03T05:15:22.755Z,-907.41
2019-03-03T05:16:23.148Z,-908.93
2019-03-03T05:17:23.242Z,-910.08
2019-03-03T05:18:23.528Z,-909.68
2019-03-03T05:19:23.807Z,-906.49
2019-03-03T05:20:24.108Z,-911.51
2019-03-03T05:21:24.344Z,-905.72
2019-03-03T05:22:24.611Z,-910.50
2019-03-03T05:23:24.904Z,-911.95
2019-03-03T05:24:33.657Z,-909.30
2019-03-03T05:25:26.430Z,-902.52
2019-03-03T05:26:25.673Z,-906.98
2019-03-03T05:27:25.936Z,-913.32
2019-03-03T05:28:26.229Z,-906.96
2019-03-03T05:29:26.464Z,-905.39
2019-03-03T05:30:26.762Z,-907.13
2019-03-03T05:31:27.019Z,-907.86
2019-03-03T05:32:27.314Z,-907.08
2019-03-03T05:33:27.554Z,-907.04
2019-03-03T05:34:27.805Z,-909.54
2019-03-03T05:35:28.069Z,-911.32
2019-03-03T05:36:28.334Z,-910.02
2019-03-03T05:37:28.625Z,-911.61
2019-03-03T05:38:28.901Z,-906.65
2019-03-03T05:39:29.162Z,-905.64
2019-03-03T05:40:29.465Z,-905.40
2019-03-03T05:41:29.801Z,-910.20
2019-03-03T05:42:29.990Z,-909.60
2019-03-03T05:43:30.273Z,-912.39
2019-03-03T05:44:30.525Z,-912.22
2019-03-03T05:45:30.820Z,-913.32
2019-03-03T05:46:31.081Z,-912.42
2019-03-03T05:47:31.335Z,-913.81
2019-03-03T05:48:31.644Z,-911.97
2019-03-03T05:49:32.239Z,-911.34
2019-03-03T05:50:32.163Z,-912.76
2019-03-03T05:51:32.421Z,-911.61
2019-03-03T05:52:32.670Z,-907.38
2019-03-03T05:53:32.972Z,-911.74
2019-03-03T05:54:33.221Z,-909.37
2019-03-03T05:55:33.499Z,-907.78
2019-03-03T05:56:33.781Z,-909.79
2019-03-03T05:57:34.125Z,-906.30
2019-03-03T05:58:34.312Z,-906.31
2019-03-03T05:59:34.561Z,-903.54
2019-03-03T06:00:34.845Z,-901.65
2019-03-03T06:01:35.118Z,-899.29
2019-03-03T06:02:35.369Z,-895.99
2019-03-03T06:03:35.639Z,-898.40
2019-03-03T06:04:35.905Z,-898.72
2019-03-03T06:05:36.261Z,-897.85
2019-03-03T06:06:36.442Z,-895.28
2019-03-03T06:07:36.699Z,-898.24
2019-03-03T06:08:36.988Z,-892.32
2019-03-03T06:09:37.223Z,-896.28
2019-03-03T06:10:37.539Z,-893.00
2019-03-03T06:11:37.793Z,-890.08
2019-03-03T06:12:38.038Z,-897.89
2019-03-03T06:13:38.383Z,-901.24
2019-03-03T06:14:38.540Z,-900.30
2019-03-03T06:15:38.860Z,-890.69
2019-03-03T06:16:39.140Z,-895.92
2019-03-03T06:17:39.396Z,-896.47
2019-03-03T06:18:39.680Z,-897.29
2019-03-03T06:19:39.934Z,-898.09
2019-03-03T06:20:40.197Z,-898.36
2019-03-03T06:21:40.493Z,-895.11
2019-03-03T06:22:40.867Z,-892.19
2019-03-03T06:23:41.008Z,-895.49
2019-03-03T06:24:41.266Z,-895.67
2019-03-03T06:25:41.554Z,-905.67
2019-03-03T06:26:41.821Z,-895.20
2019-03-03T06:27:42.087Z,-897.03
2019-03-03T06:28:42.383Z,-895.97
2019-03-03T06:29:42.629Z,-892.86
2019-03-03T06:30:43.039Z,-896.76
2019-03-03T06:31:43.182Z,-899.14
2019-03-03T06:32:43.432Z,-892.34
2019-03-03T06:33:43.715Z,-894.71
2019-03-03T06:34:43.973Z,-899.03
2019-03-03T06:35:44.267Z,-896.03
2019-03-03T06:36:44.509Z,-902.07
2019-03-03T06:37:44.767Z,-896.73
2019-03-03T06:38:45.139Z,-898.53
2019-03-03T06:39:45.300Z,-890.82
2019-03-03T06:40:45.572Z,-897.74
2019-03-03T06:41:45.868Z,-896.71
2019-03-03T06:42:46.092Z,-899.53
2019-03-03T06:43:46.379Z,-896.37
2019-03-03T06:44:46.664Z,-894.40
2019-03-03T06:45:46.932Z,-899.07
2019-03-03T06:46:47.287Z,-895.07
2019-03-03T06:47:47.449Z,-892.97
2019-03-03T06:48:47.713Z,-892.58
2019-03-03T06:49:48.016Z,-897.53
2019-03-03T06:50:48.282Z,-898.86
2019-03-03T06:51:48.570Z,-896.69
2019-03-03T06:52:48.820Z,-902.64
2019-03-03T06:53:49.097Z,-897.32
2019-03-03T06:54:49.390Z,-898.34
2019-03-03T06:55:49.724Z,-895.24
2019-03-03T06:56:49.959Z,-898.58
2019-03-03T06:57:50.204Z,-896.77
2019-03-03T06:58:50.459Z,-899.71
2019-03-03T06:59:50.744Z,-898.91
2019-03-03T07:00:51.010Z,-894.52
2019-03-03T07:01:51.329Z,-897.74
2019-03-03T07:02:51.586Z,-896.19
2019-03-03T07:03:51.978Z,-897.28
2019-03-03T07:04:52.107Z,-898.69
2019-03-03T07:05:52.380Z,-900.48
2019-03-03T07:06:52.669Z,-895.38
2019-03-03T07:07:52.910Z,-896.70
2019-03-03T07:08:53.180Z,-902.75
2019-03-03T07:09:53.460Z,-903.69
2019-03-03T07:10:53.717Z,-901.48
2019-03-03T07:11:54.143Z,-903.99
2019-03-03T07:12:54.265Z,-900.75
2019-03-03T07:13:54.532Z,-900.40
2019-03-03T07:14:54.823Z,-904.25
2019-03-03T07:15:55.056Z,-902.45
2019-03-03T07:16:55.386Z,-897.88
2019-03-03T07:17:55.613Z,-903.32
2019-03-03T07:18:55.906Z,-906.63
2019-03-03T07:19:56.192Z,-903.88
2019-03-03T07:20:56.382Z,-899.42
2019-03-03T07:21:56.677Z,-900.60
2019-03-03T07:22:56.942Z,-901.37
2019-03-03T07:23:57.219Z,-905.91
2019-03-03T07:24:57.497Z,-904.20
2019-03-03T07:25:57.808Z,-906.59
2019-03-03T07:26:58.278Z,-905.84
2019-03-03T07:27:58.559Z,-909.56
2019-03-03T07:28:58.524Z,-902.19
2019-03-03T07:29:58.811Z,-900.85
2019-03-03T07:30:59.069Z,-903.50
2019-03-03T07:31:59.385Z,-908.79
2019-03-03T07:32:59.603Z,-910.73
2019-03-03T07:33:59.862Z,-909.50
2019-03-03T07:35:00.275Z,-913.82
2019-03-03T07:36:00.457Z,-909.04
2019-03-03T07:37:00.778Z,-909.25
2019-03-03T07:38:00.949Z,-905.41
2019-03-03T07:39:01.201Z,-908.53
2019-03-03T07:40:01.503Z,-907.76
2019-03-03T07:41:01.755Z,-912.16
2019-03-03T07:42:02.050Z,-908.73
2019-03-03T07:43:02.292Z,-913.84
2019-03-03T07:44:02.564Z,-912.84
2019-03-03T07:45:04.515Z,-907.62
2019-03-03T07:46:03.081Z,-909.60
2019-03-03T07:47:03.384Z,-915.29
2019-03-03T07:48:03.622Z,-959.24
2019-03-03T07:49:03.890Z,-961.62
2019-03-03T07:50:04.162Z,-961.15
2019-03-03T07:51:04.437Z,-964.19
2019-03-03T07:52:04.735Z,-961.41
2019-03-03T07:53:05.042Z,-960.00
2019-03-03T07:54:05.227Z,-962.39
2019-03-03T07:55:05.499Z,-955.39
2019-03-03T07:56:05.768Z,-962.36
2019-03-03T07:57:06.042Z,-965.30
2019-03-03T07:58:06.304Z,-964.30
2019-03-03T07:59:06.571Z,-962.61
2019-03-03T08:00:06.870Z,-960.22
2019-03-03T08:01:07.142Z,-966.83
2019-03-03T08:02:07.370Z,-964.98
2019-03-03T08:03:07.651Z,-965.45
2019-03-03T08:04:07.917Z,-964.92
2019-03-03T08:05:08.203Z,-964.58
2019-03-03T08:06:08.452Z,-966.81
2019-03-03T08:07:08.751Z,-966.87
2019-03-03T08:08:09.000Z,-958.89
2019-03-03T08:09:09.354Z,-962.24
2019-03-03T08:10:09.558Z,-964.46
2019-03-03T08:11:09.807Z,-963.86
2019-03-03T08:12:10.109Z,-964.31
2019-03-03T08:13:10.351Z,-961.95
2019-03-03T08:14:10.612Z,-962.48
2019-03-03T08:15:10.904Z,-961.78
2019-03-03T08:16:11.161Z,-962.73
2019-03-03T08:17:11.552Z,-963.85
2019-03-03T08:18:11.780Z,-956.54
2019-03-03T08:19:11.964Z,-963.72
2019-03-03T08:20:12.242Z,-965.84
2019-03-03T08:21:12.497Z,-966.49
2019-03-03T08:22:12.806Z,-962.34
2019-03-03T08:23:13.047Z,-963.54
2019-03-03T08:24:13.285Z,-962.15
2019-03-03T08:25:13.601Z,-962.36
2019-03-03T08:26:13.937Z,-965.63
2019-03-03T08:27:14.279Z,-961.96
2019-03-03T08:28:14.365Z,-967.89
2019-03-03T08:29:14.616Z,-964.68
2019-03-03T08:30:14.921Z,-967.11
2019-03-03T08:31:15.174Z,-963.05
2019-03-03T08:32:15.470Z,-963.64
2019-03-03T08:33:15.733Z,-967.14
2019-03-03T08:34:16.031Z,-969.53
2019-03-03T08:35:16.278Z,-967.78
2019-03-03T08:36:16.500Z,-966.28
2019-03-03T08:37:16.784Z,-961.26
2019-03-03T08:38:17.067Z,-963.26
2019-03-03T08:39:17.312Z,-962.26
2019-03-03T08:40:17.607Z,-959.33
2019-03-03T08:41:17.855Z,-963.11
2019-03-03T08:42:18.169Z,-963.32
2019-03-03T08:43:18.401Z,-963.04
2019-03-03T08:44:18.657Z,-965.07
2019-03-03T08:45:18.971Z,-962.44
2019-03-03T08:46:19.174Z,-958.45
2019-03-03T08:47:19.460Z,-962.41
2019-03-03T08:48:22.657Z,-963.29
2019-03-03T08:49:19.991Z,-965.36
2019-03-03T08:50:20.346Z,-965.22
2019-03-03T08:51:20.539Z,-964.83
2019-03-03T08:52:20.817Z,-960.88
2019-03-03T08:53:21.100Z,-963.88
2019-03-03T08:54:21.334Z,-965.19
2019-03-03T08:55:21.648Z,-966.75
2019-03-03T08:56:21.881Z,-958.99
2019-03-03T08:57:22.124Z,-963.20
2019-03-03T08:58:22.419Z,-965.97
2019-03-03T08:59:22.780Z,-964.10
2019-03-03T09:00:22.969Z,-967.35
2019-03-03T09:01:23.210Z,-967.67
2019-03-03T09:02:23.466Z,-971.28
2019-03-03T09:03:23.766Z,-962.99
2019-03-03T09:04:24.016Z,-966.87
2019-03-03T09:05:24.295Z,-965.29
2019-03-03T09:06:24.787Z,-965.06
2019-03-03T09:07:24.947Z,-964.81
2019-03-03T09:08:25.122Z,-962.46
2019-03-03T09:09:26.120Z,-958.45
2019-03-03T09:10:25.749Z,-959.45
2019-03-03T09:11:25.932Z,-959.85
2019-03-03T09:12:26.201Z,-948.97
2019-03-03T09:13:26.479Z,-957.02
2019-03-03T09:14:26.745Z,-956.77
2019-03-03T09:15:27.101Z,-957.54
2019-03-03T09:16:27.282Z,-959.77
2019-03-03T09:17:27.548Z,-961.17
2019-03-03T09:18:27.837Z,-956.83
2019-03-03T09:19:28.071Z,-955.48
2019-03-03T09:20:28.362Z,-953.56
2019-03-03T09:21:28.636Z,-957.67
2019-03-03T09:22:28.888Z,-962.09
2019-03-03T09:23:29.221Z,-959.18
2019-03-03T09:24:29.437Z,-955.57
2019-03-03T09:25:29.663Z,-954.08
2019-03-03T09:26:29.958Z,-960.75
2019-03-03T09:27:30.211Z,-957.55
2019-03-03T09:28:30.502Z,-958.58
2019-03-03T09:29:30.783Z,-961.13
2019-03-03T09:30:31.006Z,-953.41
2019-03-03T09:31:31.321Z,-960.81
2019-03-03T09:32:31.612Z,-957.06
2019-03-03T09:33:31.834Z,-959.13
2019-03-03T09:34:32.102Z,-960.32
2019-03-03T09:35:32.344Z,-962.46
2019-03-03T09:36:32.643Z,-954.76
2019-03-03T09:37:32.919Z,-955.18
2019-03-03T09:38:33.239Z,-956.91
2019-03-03T09:39:33.502Z,-957.19
2019-03-03T09:40:33.823Z,-955.76
2019-03-03T09:41:34.001Z,-946.12
2019-03-03T09:42:34.252Z,-941.88
2019-03-03T09:43:34.537Z,-949.91
2019-03-03T09:44:34.817Z,-962.35
2019-03-03T09:45:35.048Z,-956.38
2019-03-03T09:46:35.325Z,-960.42
2019-03-03T09:47:35.577Z,-951.73
2019-03-03T09:48:35.951Z,-955.99
2019-03-03T09:49:36.148Z,-955.90
2019-03-03T09:50:36.391Z,-959.65
2019-03-03T09:51:36.658Z,-952.86
2019-03-03T09:52:36.911Z,-963.51
2019-03-03T09:53:37.214Z,-956.84
2019-03-03T09:54:37.483Z,-952.94
2019-03-03T09:55:37.735Z,-963.19
2019-03-03T09:56:38.054Z,-955.59
2019-03-03T09:57:38.232Z,-953.03
2019-03-03T09:58:38.546Z,-957.08
2019-03-03T09:59:38.850Z,-955.87
2019-03-03T10:00:39.694Z,-949.31
2019-03-03T10:01:39.365Z,-951.12
2019-03-03T10:02:39.614Z,-955.06
2019-03-03T10:03:39.861Z,-956.99
2019-03-03T10:04:40.240Z,-954.01
2019-03-03T10:05:40.388Z,-954.55
2019-03-03T10:06:40.688Z,-955.71
2019-03-03T10:07:40.940Z,-953.33
2019-03-03T10:08:41.218Z,-951.91
2019-03-03T10:09:41.499Z,-952.09
2019-03-03T10:10:41.753Z,-961.15
2019-03-03T10:11:42.032Z,-956.11
2019-03-03T10:12:42.318Z,-952.77
2019-03-03T10:13:42.636Z,-956.03
2019-03-03T10:14:42.854Z,-949.66
2019-03-03T10:15:43.146Z,-954.73
2019-03-03T10:16:43.396Z,-953.47
2019-03-03T10:17:43.676Z,-956.84
2019-03-03T10:18:43.908Z,-957.91
2019-03-03T10:19:44.242Z,-953.42
2019-03-03T10:20:44.440Z,-956.47
2019-03-03T10:21:47.691Z,-951.42
2019-03-03T10:22:44.990Z,-947.90
2019-03-03T10:23:45.258Z,-953.37
2019-03-03T10:24:45.835Z,-958.37
2019-03-03T10:26:01.161Z,-956.85
2019-03-03T10:28:07.344Z,-742.27
2019-03-03T10:29:00.229Z,-891.41
2019-03-03T10:30:04.287Z,-899.74
2019-03-03T10:31:00.157Z,-888.72
2019-03-03T10:32:00.328Z,-894.27
2019-03-03T10:33:00.595Z,-888.53
2019-03-03T10:34:00.859Z,-886.13
2019-03-03T10:35:01.144Z,-893.22
2019-03-03T10:36:01.417Z,-898.56
2019-03-03T10:37:01.662Z,-899.11
2019-03-03T10:38:02.963Z,-897.90
2019-03-03T10:39:02.345Z,-898.04
2019-03-03T10:40:02.517Z,-904.72
2019-03-03T10:41:02.752Z,-900.84
2019-03-03T10:42:03.077Z,-894.26
2019-03-03T10:43:03.337Z,-900.30
2019-03-03T10:44:03.554Z,-885.23
2019-03-03T10:45:04.082Z,-898.63
2019-03-03T10:46:04.072Z,-892.16
2019-03-03T10:47:04.435Z,-884.36
2019-03-03T10:48:04.686Z,-897.22
2019-03-03T10:49:04.963Z,-888.94
2019-03-03T10:50:05.188Z,-886.23
2019-03-03T10:51:05.466Z,-883.62
2019-03-03T10:52:05.719Z,-888.23
2019-03-03T10:53:05.982Z,-885.72
2019-03-03T10:54:06.247Z,-882.90
2019-03-03T10:55:06.574Z,-880.99
2019-03-03T10:56:06.778Z,-883.28
2019-03-03T10:57:07.070Z,-889.39
2019-03-03T10:58:07.329Z,-891.49
2019-03-03T10:59:07.598Z,-885.05
2019-03-03T11:00:07.879Z,-881.75
2019-03-03T11:01:08.142Z,-885.55
2019-03-03T11:02:08.402Z,-887.87
2019-03-03T11:03:08.708Z,-891.48
2019-03-03T11:04:09.013Z,-888.81
2019-03-03T11:05:09.225Z,-889.28
2019-03-03T11:06:09.486Z,-887.36
2019-03-03T11:07:09.743Z,-890.79
2019-03-03T11:08:10.155Z,-887.79
2019-03-03T11:09:10.266Z,-887.22
2019-03-03T11:10:10.571Z,-892.42
2019-03-03T11:11:10.826Z,-875.38
2019-03-03T11:12:11.212Z,-895.29
2019-03-03T11:13:11.371Z,-893.49
2019-03-03T11:14:11.626Z,-895.94
2019-03-03T11:15:18.208Z,-894.93
2019-03-03T11:16:13.469Z,-889.07
2019-03-03T11:17:12.449Z,-893.29
2019-03-03T11:18:14.014Z,-891.42
2019-03-03T11:19:12.983Z,-881.48
2019-03-03T11:20:13.339Z,-894.99
2019-03-03T11:21:13.515Z,-891.83
2019-03-03T11:22:13.773Z,-896.91
2019-03-03T11:23:14.068Z,-891.29
2019-03-03T11:24:14.321Z,-892.92
2019-03-03T11:25:14.742Z,-895.79
2019-03-03T11:26:14.872Z,-892.82
2019-03-03T11:27:15.134Z,-891.15
2019-03-03T11:28:23.352Z,-888.21
2019-03-03T11:29:17.245Z,-884.28
2019-03-03T11:30:15.930Z,-892.36
2019-03-03T11:31:16.183Z,-887.16
2019-03-03T11:32:16.472Z,-892.78
2019-03-03T11:33:16.759Z,-887.73
2019-03-03T11:34:17.014Z,-887.34
2019-03-03T11:35:17.285Z,-896.77
2019-03-03T11:36:17.583Z,-897.64
2019-03-03T11:37:17.880Z,-895.39
2019-03-03T11:38:18.109Z,-901.56
2019-03-03T11:39:18.359Z,-894.56
2019-03-03T11:40:18.636Z,-895.04
2019-03-03T11:41:18.921Z,-898.21
2019-03-03T11:42:19.796Z,-888.10
2019-03-03T11:43:19.469Z,-894.80
2019-03-03T11:44:19.737Z,-894.12
2019-03-03T11:45:20.119Z,-888.30
2019-03-03T11:46:20.301Z,-893.21
2019-03-03T11:47:20.545Z,-896.08
2019-03-03T11:48:20.866Z,-898.11
2019-03-03T11:49:21.155Z,-892.52
2019-03-03T11:50:21.371Z,-887.68
2019-03-03T11:51:21.700Z,-888.11
2019-03-03T11:52:21.904Z,-886.64
2019-03-03T11:53:22.289Z,-889.94
2019-03-03T11:54:22.425Z,-893.36
2019-03-03T11:55:22.701Z,-891.37
2019-03-03T11:56:23.020Z,-891.35
2019-03-03T11:57:23.235Z,-892.34
2019-03-03T11:58:23.520Z,-889.79
2019-03-03T11:59:23.752Z,-890.85
2019-03-03T12:00:24.043Z,-898.55
2019-03-03T12:01:24.409Z,-889.80
2019-03-03T12:02:24.561Z,-889.11
2019-03-03T12:03:24.890Z,-888.66
2019-03-03T12:04:29.250Z,-887.70
2019-03-03T12:05:25.353Z,-888.74
2019-03-03T12:06:25.692Z,-889.41
2019-03-03T12:07:25.913Z,-889.88
2019-03-03T12:08:26.201Z,-894.98
2019-03-03T12:09:26.475Z,-893.64
2019-03-03T12:10:26.758Z,-887.69